sensor_id;sensor_type;location;lat;lon;timestamp;P1;durP1;ratioP1;P2;durP2;ratioP2
19944;SDS011;10134;50.952;6.930;2023-06-14T00:01:02;6.15;;;4.55;;
19944;SDS011;10134;50.952;6.930;2023-06-14T00:03:29;8.45;;;4.57;;
19944;SDS011;10134;50.952;6.930;2023-06-14T00:05:58;7.32;;;4.28;;
19944;SDS011;10134;50.952;6.930;2023-06-14T00:08:26;8.93;;;4.85;;
19944;SDS011;10134;50.952;6.930;2023-06-14T00:10:53;8.07;;;4.28;;
19944;SDS011;10134;50.952;6.930;2023-06-14T00:13:20;7.53;;;5.13;;
19944;SDS011;10134;50.952;6.930;2023-06-14T00:15:47;7.43;;;5.38;;
19944;SDS011;10134;50.952;6.930;2023-06-14T00:18:15;5.63;;;4.53;;
19944;SDS011;10134;50.952;6.930;2023-06-14T00:20:43;8.48;;;4.30;;
19944;SDS011;10134;50.952;6.930;2023-06-14T00:23:10;7.40;;;4.75;;
19944;SDS011;10134;50.952;6.930;2023-06-14T00:25:38;5.57;;;4.43;;
19944;SDS011;10134;50.952;6.930;2023-06-14T00:28:05;7.40;;;4.60;;
19944;SDS011;10134;50.952;6.930;2023-06-14T00:30:34;11.48;;;5.50;;
19944;SDS011;10134;50.952;6.930;2023-06-14T00:33:01;6.32;;;4.80;;
19944;SDS011;10134;50.952;6.930;2023-06-14T00:35:29;7.82;;;5.00;;
19944;SDS011;10134;50.952;6.930;2023-06-14T00:37:56;5.15;;;4.55;;
19944;SDS011;10134;50.952;6.930;2023-06-14T00:40:24;7.07;;;4.72;;
19944;SDS011;10134;50.952;6.930;2023-06-14T00:42:51;7.18;;;5.30;;
19944;SDS011;10134;50.952;6.930;2023-06-14T00:45:18;8.40;;;4.70;;
19944;SDS011;10134;50.952;6.930;2023-06-14T00:47:46;6.47;;;4.57;;
19944;SDS011;10134;50.952;6.930;2023-06-14T00:50:17;8.32;;;5.22;;
19944;SDS011;10134;50.952;6.930;2023-06-14T00:52:45;8.80;;;5.32;;
19944;SDS011;10134;50.952;6.930;2023-06-14T00:55:13;7.60;;;4.32;;
19944;SDS011;10134;50.952;6.930;2023-06-14T00:57:40;6.95;;;5.22;;
19944;SDS011;10134;50.952;6.930;2023-06-14T01:00:08;6.57;;;5.00;;
19944;SDS011;10134;50.952;6.930;2023-06-14T01:02:37;6.50;;;5.13;;
19944;SDS011;10134;50.952;6.930;2023-06-14T01:05:08;6.97;;;5.03;;
19944;SDS011;10134;50.952;6.930;2023-06-14T01:10:32;6.05;;;5.03;;
19944;SDS011;10134;50.952;6.930;2023-06-14T01:13:07;7.13;;;5.50;;
19944;SDS011;10134;50.952;6.930;2023-06-14T01:15:35;7.75;;;5.00;;
19944;SDS011;10134;50.952;6.930;2023-06-14T01:18:04;6.70;;;4.95;;
19944;SDS011;10134;50.952;6.930;2023-06-14T01:20:33;7.78;;;5.13;;
19944;SDS011;10134;50.952;6.930;2023-06-14T01:23:05;8.82;;;4.55;;
19944;SDS011;10134;50.952;6.930;2023-06-14T01:25:32;10.43;;;4.75;;
19944;SDS011;10134;50.952;6.930;2023-06-14T01:28:00;5.47;;;4.82;;
19944;SDS011;10134;50.952;6.930;2023-06-14T01:30:31;8.70;;;5.20;;
19944;SDS011;10134;50.952;6.930;2023-06-14T01:33:00;5.80;;;4.93;;
19944;SDS011;10134;50.952;6.930;2023-06-14T01:35:29;7.45;;;4.88;;
19944;SDS011;10134;50.952;6.930;2023-06-14T01:37:57;6.72;;;5.43;;
19944;SDS011;10134;50.952;6.930;2023-06-14T01:40:29;7.68;;;5.45;;
19944;SDS011;10134;50.952;6.930;2023-06-14T01:42:58;8.27;;;4.93;;
19944;SDS011;10134;50.952;6.930;2023-06-14T01:45:26;7.35;;;4.63;;
19944;SDS011;10134;50.952;6.930;2023-06-14T01:47:56;5.38;;;4.78;;
19944;SDS011;10134;50.952;6.930;2023-06-14T01:50:24;5.38;;;4.85;;
19944;SDS011;10134;50.952;6.930;2023-06-14T01:52:57;7.57;;;5.15;;
19944;SDS011;10134;50.952;6.930;2023-06-14T01:55:24;7.13;;;4.85;;
19944;SDS011;10134;50.952;6.930;2023-06-14T01:57:52;6.13;;;5.15;;
19944;SDS011;10134;50.952;6.930;2023-06-14T02:00:20;7.10;;;4.80;;
19944;SDS011;10134;50.952;6.930;2023-06-14T02:02:48;7.90;;;5.28;;
19944;SDS011;10134;50.952;6.930;2023-06-14T02:05:16;6.38;;;4.50;;
19944;SDS011;10134;50.952;6.930;2023-06-14T02:07:45;5.78;;;4.85;;
19944;SDS011;10134;50.952;6.930;2023-06-14T02:10:15;5.78;;;5.05;;
19944;SDS011;10134;50.952;6.930;2023-06-14T02:12:44;6.85;;;4.97;;
19944;SDS011;10134;50.952;6.930;2023-06-14T02:15:12;8.63;;;5.10;;
19944;SDS011;10134;50.952;6.930;2023-06-14T02:17:44;6.40;;;5.10;;
19944;SDS011;10134;50.952;6.930;2023-06-14T02:20:11;5.70;;;4.85;;
19944;SDS011;10134;50.952;6.930;2023-06-14T02:22:40;7.70;;;4.90;;
19944;SDS011;10134;50.952;6.930;2023-06-14T02:25:07;9.15;;;4.18;;
19944;SDS011;10134;50.952;6.930;2023-06-14T02:27:35;6.97;;;4.88;;
19944;SDS011;10134;50.952;6.930;2023-06-14T02:30:03;8.15;;;4.43;;
19944;SDS011;10134;50.952;6.930;2023-06-14T02:32:32;7.40;;;4.88;;
19944;SDS011;10134;50.952;6.930;2023-06-14T02:35:02;5.35;;;4.40;;
19944;SDS011;10134;50.952;6.930;2023-06-14T02:37:30;6.30;;;4.55;;
19944;SDS011;10134;50.952;6.930;2023-06-14T02:39:58;7.65;;;4.88;;
19944;SDS011;10134;50.952;6.930;2023-06-14T02:42:26;9.25;;;4.82;;
19944;SDS011;10134;50.952;6.930;2023-06-14T02:44:53;6.75;;;4.70;;
19944;SDS011;10134;50.952;6.930;2023-06-14T02:47:20;7.00;;;4.43;;
19944;SDS011;10134;50.952;6.930;2023-06-14T02:49:47;6.43;;;4.35;;
19944;SDS011;10134;50.952;6.930;2023-06-14T02:52:15;8.32;;;5.00;;
19944;SDS011;10134;50.952;6.930;2023-06-14T02:54:42;7.30;;;4.78;;
19944;SDS011;10134;50.952;6.930;2023-06-14T02:57:10;7.22;;;4.60;;
19944;SDS011;10134;50.952;6.930;2023-06-14T02:59:39;7.10;;;4.47;;
19944;SDS011;10134;50.952;6.930;2023-06-14T03:02:07;9.55;;;4.53;;
19944;SDS011;10134;50.952;6.930;2023-06-14T03:04:35;7.53;;;4.15;;
19944;SDS011;10134;50.952;6.930;2023-06-14T03:07:08;6.35;;;4.50;;
19944;SDS011;10134;50.952;6.930;2023-06-14T03:09:39;5.45;;;4.15;;
19944;SDS011;10134;50.952;6.930;2023-06-14T03:12:09;8.75;;;4.45;;
19944;SDS011;10134;50.952;6.930;2023-06-14T03:14:38;7.35;;;4.22;;
19944;SDS011;10134;50.952;6.930;2023-06-14T03:17:07;9.45;;;4.10;;
19944;SDS011;10134;50.952;6.930;2023-06-14T03:19:37;4.63;;;4.03;;
19944;SDS011;10134;50.952;6.930;2023-06-14T03:22:04;4.35;;;3.67;;
19944;SDS011;10134;50.952;6.930;2023-06-14T03:24:35;6.63;;;4.40;;
19944;SDS011;10134;50.952;6.930;2023-06-14T03:27:08;5.80;;;4.10;;
19944;SDS011;10134;50.952;6.930;2023-06-14T03:29:39;6.72;;;4.32;;
19944;SDS011;10134;50.952;6.930;2023-06-14T03:32:07;7.88;;;4.78;;
19944;SDS011;10134;50.952;6.930;2023-06-14T03:34:38;6.82;;;4.63;;
19944;SDS011;10134;50.952;6.930;2023-06-14T03:37:07;7.95;;;4.60;;
19944;SDS011;10134;50.952;6.930;2023-06-14T03:39:35;9.40;;;4.70;;
19944;SDS011;10134;50.952;6.930;2023-06-14T03:42:03;6.40;;;4.50;;
19944;SDS011;10134;50.952;6.930;2023-06-14T03:44:32;5.60;;;4.50;;
19944;SDS011;10134;50.952;6.930;2023-06-14T03:47:00;4.80;;;4.18;;
19944;SDS011;10134;50.952;6.930;2023-06-14T03:49:28;4.85;;;4.13;;
19944;SDS011;10134;50.952;6.930;2023-06-14T03:51:55;10.85;;;4.28;;
19944;SDS011;10134;50.952;6.930;2023-06-14T03:54:24;8.18;;;4.10;;
19944;SDS011;10134;50.952;6.930;2023-06-14T03:56:55;6.28;;;3.83;;
19944;SDS011;10134;50.952;6.930;2023-06-14T03:59:23;7.53;;;4.18;;
19944;SDS011;10134;50.952;6.930;2023-06-14T04:01:51;6.15;;;3.88;;
19944;SDS011;10134;50.952;6.930;2023-06-14T04:04:20;6.45;;;3.70;;
19944;SDS011;10134;50.952;6.930;2023-06-14T04:06:48;5.05;;;3.80;;
19944;SDS011;10134;50.952;6.930;2023-06-14T04:09:16;10.88;;;4.60;;
19944;SDS011;10134;50.952;6.930;2023-06-14T04:11:45;4.70;;;3.83;;
19944;SDS011;10134;50.952;6.930;2023-06-14T04:14:13;8.02;;;4.50;;
19944;SDS011;10134;50.952;6.930;2023-06-14T04:16:40;7.53;;;3.90;;
19944;SDS011;10134;50.952;6.930;2023-06-14T04:19:07;9.98;;;3.67;;
19944;SDS011;10134;50.952;6.930;2023-06-14T04:21:35;7.85;;;4.10;;
19944;SDS011;10134;50.952;6.930;2023-06-14T04:24:03;6.97;;;3.17;;
19944;SDS011;10134;50.952;6.930;2023-06-14T04:26:32;6.78;;;3.47;;
19944;SDS011;10134;50.952;6.930;2023-06-14T04:29:00;6.15;;;3.30;;
19944;SDS011;10134;50.952;6.930;2023-06-14T04:31:31;5.28;;;3.65;;
19944;SDS011;10134;50.952;6.930;2023-06-14T04:34:06;4.55;;;3.30;;
19944;SDS011;10134;50.952;6.930;2023-06-14T04:36:34;5.07;;;3.28;;
19944;SDS011;10134;50.952;6.930;2023-06-14T04:39:04;11.60;;;3.08;;
19944;SDS011;10134;50.952;6.930;2023-06-14T04:41:31;3.97;;;3.30;;
19944;SDS011;10134;50.952;6.930;2023-06-14T04:44:00;7.35;;;3.53;;
19944;SDS011;10134;50.952;6.930;2023-06-14T04:46:36;6.50;;;3.20;;
19944;SDS011;10134;50.952;6.930;2023-06-14T04:49:21;6.60;;;3.13;;
19944;SDS011;10134;50.952;6.930;2023-06-14T04:51:53;6.72;;;3.70;;
19944;SDS011;10134;50.952;6.930;2023-06-14T04:54:28;6.05;;;3.80;;
19944;SDS011;10134;50.952;6.930;2023-06-14T04:56:58;5.47;;;3.70;;
19944;SDS011;10134;50.952;6.930;2023-06-14T04:59:27;3.80;;;3.05;;
19944;SDS011;10134;50.952;6.930;2023-06-14T05:01:54;6.75;;;3.30;;
19944;SDS011;10134;50.952;6.930;2023-06-14T05:04:23;5.30;;;3.40;;
19944;SDS011;10134;50.952;6.930;2023-06-14T05:06:52;4.30;;;3.50;;
19944;SDS011;10134;50.952;6.930;2023-06-14T05:09:21;4.75;;;3.10;;
19944;SDS011;10134;50.952;6.930;2023-06-14T05:11:50;6.18;;;3.30;;
19944;SDS011;10134;50.952;6.930;2023-06-14T05:14:17;4.90;;;3.53;;
19944;SDS011;10134;50.952;6.930;2023-06-14T05:16:45;12.38;;;4.10;;
19944;SDS011;10134;50.952;6.930;2023-06-14T05:19:15;7.72;;;4.03;;
19944;SDS011;10134;50.952;6.930;2023-06-14T05:21:47;7.85;;;4.13;;
19944;SDS011;10134;50.952;6.930;2023-06-14T05:24:14;9.07;;;3.30;;
19944;SDS011;10134;50.952;6.930;2023-06-14T05:26:43;6.55;;;3.53;;
19944;SDS011;10134;50.952;6.930;2023-06-14T05:29:11;6.57;;;3.42;;
19944;SDS011;10134;50.952;6.930;2023-06-14T05:31:38;5.90;;;3.78;;
19944;SDS011;10134;50.952;6.930;2023-06-14T05:34:06;8.23;;;3.67;;
19944;SDS011;10134;50.952;6.930;2023-06-14T05:36:33;9.40;;;3.70;;
19944;SDS011;10134;50.952;6.930;2023-06-14T05:39:00;11.50;;;3.97;;
19944;SDS011;10134;50.952;6.930;2023-06-14T05:41:29;7.15;;;3.30;;
19944;SDS011;10134;50.952;6.930;2023-06-14T05:43:57;7.05;;;3.45;;
19944;SDS011;10134;50.952;6.930;2023-06-14T05:46:24;5.03;;;3.30;;
19944;SDS011;10134;50.952;6.930;2023-06-14T05:48:53;4.50;;;3.10;;
19944;SDS011;10134;50.952;6.930;2023-06-14T05:51:22;7.40;;;3.40;;
19944;SDS011;10134;50.952;6.930;2023-06-14T05:53:53;5.85;;;3.72;;
19944;SDS011;10134;50.952;6.930;2023-06-14T05:56:21;10.10;;;3.72;;
19944;SDS011;10134;50.952;6.930;2023-06-14T05:58:49;4.53;;;2.90;;
19944;SDS011;10134;50.952;6.930;2023-06-14T06:01:17;4.97;;;2.83;;
19944;SDS011;10134;50.952;6.930;2023-06-14T06:03:44;5.60;;;3.40;;
19944;SDS011;10134;50.952;6.930;2023-06-14T06:06:13;5.97;;;3.50;;
19944;SDS011;10134;50.952;6.930;2023-06-14T06:08:41;6.82;;;3.63;;
19944;SDS011;10134;50.952;6.930;2023-06-14T06:11:09;7.85;;;3.70;;
19944;SDS011;10134;50.952;6.930;2023-06-14T06:13:37;6.93;;;3.80;;
19944;SDS011;10134;50.952;6.930;2023-06-14T06:16:05;5.90;;;2.97;;
19944;SDS011;10134;50.952;6.930;2023-06-14T06:18:33;8.98;;;3.75;;
19944;SDS011;10134;50.952;6.930;2023-06-14T06:21:01;3.47;;;2.42;;
19944;SDS011;10134;50.952;6.930;2023-06-14T06:23:30;4.30;;;3.30;;
19944;SDS011;10134;50.952;6.930;2023-06-14T06:25:57;5.47;;;3.15;;
19944;SDS011;10134;50.952;6.930;2023-06-14T06:28:25;7.78;;;3.00;;
19944;SDS011;10134;50.952;6.930;2023-06-14T06:30:52;14.25;;;3.35;;
19944;SDS011;10134;50.952;6.930;2023-06-14T06:33:21;3.47;;;2.90;;
19944;SDS011;10134;50.952;6.930;2023-06-14T06:35:48;7.72;;;3.28;;
19944;SDS011;10134;50.952;6.930;2023-06-14T06:38:16;7.07;;;3.25;;
19944;SDS011;10134;50.952;6.930;2023-06-14T06:40:45;3.80;;;2.72;;
19944;SDS011;10134;50.952;6.930;2023-06-14T06:43:12;4.50;;;2.60;;
19944;SDS011;10134;50.952;6.930;2023-06-14T06:45:45;6.82;;;3.17;;
19944;SDS011;10134;50.952;6.930;2023-06-14T06:48:12;4.03;;;2.63;;
19944;SDS011;10134;50.952;6.930;2023-06-14T06:50:40;6.70;;;2.70;;
19944;SDS011;10134;50.952;6.930;2023-06-14T06:53:07;4.63;;;2.55;;
19944;SDS011;10134;50.952;6.930;2023-06-14T06:55:34;7.65;;;3.10;;
19944;SDS011;10134;50.952;6.930;2023-06-14T06:58:02;6.07;;;2.92;;
19944;SDS011;10134;50.952;6.930;2023-06-14T07:00:31;12.23;;;6.93;;
19944;SDS011;10134;50.952;6.930;2023-06-14T07:02:58;6.30;;;3.70;;
19944;SDS011;10134;50.952;6.930;2023-06-14T07:05:26;6.68;;;2.55;;
19944;SDS011;10134;50.952;6.930;2023-06-14T07:07:53;4.25;;;2.67;;
19944;SDS011;10134;50.952;6.930;2023-06-14T07:10:24;6.38;;;2.30;;
19944;SDS011;10134;50.952;6.930;2023-06-14T07:12:51;5.45;;;2.30;;
19944;SDS011;10134;50.952;6.930;2023-06-14T07:15:18;10.65;;;3.50;;
19944;SDS011;10134;50.952;6.930;2023-06-14T07:17:46;4.63;;;2.20;;
19944;SDS011;10134;50.952;6.930;2023-06-14T07:20:13;4.35;;;2.40;;
19944;SDS011;10134;50.952;6.930;2023-06-14T07:22:42;5.38;;;2.65;;
19944;SDS011;10134;50.952;6.930;2023-06-14T07:25:10;7.25;;;2.53;;
19944;SDS011;10134;50.952;6.930;2023-06-14T07:27:43;4.40;;;2.63;;
19944;SDS011;10134;50.952;6.930;2023-06-14T07:30:12;3.58;;;2.20;;
19944;SDS011;10134;50.952;6.930;2023-06-14T07:32:39;4.13;;;2.22;;
19944;SDS011;10134;50.952;6.930;2023-06-14T07:35:07;7.90;;;2.40;;
19944;SDS011;10134;50.952;6.930;2023-06-14T07:37:34;3.83;;;2.10;;
19944;SDS011;10134;50.952;6.930;2023-06-14T07:40:03;3.95;;;2.75;;
19944;SDS011;10134;50.952;6.930;2023-06-14T07:42:34;5.07;;;2.65;;
19944;SDS011;10134;50.952;6.930;2023-06-14T07:45:05;4.97;;;2.58;;
19944;SDS011;10134;50.952;6.930;2023-06-14T07:47:33;3.78;;;1.92;;
19944;SDS011;10134;50.952;6.930;2023-06-14T07:50:01;4.50;;;2.10;;
19944;SDS011;10134;50.952;6.930;2023-06-14T07:52:29;3.20;;;1.70;;
19944;SDS011;10134;50.952;6.930;2023-06-14T07:54:57;2.85;;;2.10;;
19944;SDS011;10134;50.952;6.930;2023-06-14T07:57:25;6.03;;;2.22;;
19944;SDS011;10134;50.952;6.930;2023-06-14T07:59:53;3.90;;;1.77;;
19944;SDS011;10134;50.952;6.930;2023-06-14T08:02:20;6.40;;;2.38;;
19944;SDS011;10134;50.952;6.930;2023-06-14T08:04:47;4.82;;;2.22;;
19944;SDS011;10134;50.952;6.930;2023-06-14T08:07:15;5.78;;;1.90;;
19944;SDS011;10134;50.952;6.930;2023-06-14T08:09:42;3.58;;;2.17;;
19944;SDS011;10134;50.952;6.930;2023-06-14T08:12:10;6.50;;;2.00;;
19944;SDS011;10134;50.952;6.930;2023-06-14T08:14:38;4.95;;;1.90;;
19944;SDS011;10134;50.952;6.930;2023-06-14T08:17:06;3.15;;;1.50;;
19944;SDS011;10134;50.952;6.930;2023-06-14T08:19:33;5.50;;;1.55;;
19944;SDS011;10134;50.952;6.930;2023-06-14T08:22:00;2.92;;;1.13;;
19944;SDS011;10134;50.952;6.930;2023-06-14T08:24:28;3.58;;;1.45;;
19944;SDS011;10134;50.952;6.930;2023-06-14T08:26:56;1.55;;;1.20;;
19944;SDS011;10134;50.952;6.930;2023-06-14T08:29:24;7.05;;;1.52;;
19944;SDS011;10134;50.952;6.930;2023-06-14T08:31:51;3.42;;;1.80;;
19944;SDS011;10134;50.952;6.930;2023-06-14T08:34:19;2.72;;;1.50;;
19944;SDS011;10134;50.952;6.930;2023-06-14T08:36:46;4.65;;;1.50;;
19944;SDS011;10134;50.952;6.930;2023-06-14T08:39:13;2.83;;;1.33;;
19944;SDS011;10134;50.952;6.930;2023-06-14T08:41:43;3.15;;;1.60;;
19944;SDS011;10134;50.952;6.930;2023-06-14T08:44:15;3.33;;;1.35;;
19944;SDS011;10134;50.952;6.930;2023-06-14T08:46:43;2.10;;;0.90;;
19944;SDS011;10134;50.952;6.930;2023-06-14T08:49:12;2.65;;;1.30;;
19944;SDS011;10134;50.952;6.930;2023-06-14T08:51:40;2.97;;;1.42;;
19944;SDS011;10134;50.952;6.930;2023-06-14T08:54:10;2.58;;;1.60;;
19944;SDS011;10134;50.952;6.930;2023-06-14T08:56:39;4.65;;;1.52;;
19944;SDS011;10134;50.952;6.930;2023-06-14T08:59:08;1.80;;;1.20;;
19944;SDS011;10134;50.952;6.930;2023-06-14T09:01:36;5.05;;;1.70;;
19944;SDS011;10134;50.952;6.930;2023-06-14T09:04:05;2.40;;;1.50;;
19944;SDS011;10134;50.952;6.930;2023-06-14T09:06:32;2.25;;;1.38;;
19944;SDS011;10134;50.952;6.930;2023-06-14T09:08:59;2.20;;;1.75;;
19944;SDS011;10134;50.952;6.930;2023-06-14T09:11:27;6.68;;;1.77;;
19944;SDS011;10134;50.952;6.930;2023-06-14T09:13:55;5.57;;;1.55;;
19944;SDS011;10134;50.952;6.930;2023-06-14T09:16:22;1.92;;;1.20;;
19944;SDS011;10134;50.952;6.930;2023-06-14T09:18:50;3.17;;;1.33;;
19944;SDS011;10134;50.952;6.930;2023-06-14T09:21:17;5.97;;;1.73;;
19944;SDS011;10134;50.952;6.930;2023-06-14T09:23:45;2.95;;;1.42;;
19944;SDS011;10134;50.952;6.930;2023-06-14T09:26:15;5.40;;;1.63;;
19944;SDS011;10134;50.952;6.930;2023-06-14T09:28:48;2.60;;;1.90;;
19944;SDS011;10134;50.952;6.930;2023-06-14T09:31:17;2.72;;;1.52;;
19944;SDS011;10134;50.952;6.930;2023-06-14T09:33:46;2.05;;;1.75;;
19944;SDS011;10134;50.952;6.930;2023-06-14T09:36:16;5.35;;;2.15;;
19944;SDS011;10134;50.952;6.930;2023-06-14T09:38:56;3.58;;;1.50;;
19944;SDS011;10134;50.952;6.930;2023-06-14T09:41:31;1.40;;;1.27;;
19944;SDS011;10134;50.952;6.930;2023-06-14T09:44:07;1.88;;;1.50;;
19944;SDS011;10134;50.952;6.930;2023-06-14T09:46:41;3.65;;;1.42;;
19944;SDS011;10134;50.952;6.930;2023-06-14T09:49:08;3.50;;;1.40;;
19944;SDS011;10134;50.952;6.930;2023-06-14T09:51:36;2.97;;;1.55;;
19944;SDS011;10134;50.952;6.930;2023-06-14T09:54:14;4.72;;;1.60;;
19944;SDS011;10134;50.952;6.930;2023-06-14T09:56:46;2.50;;;1.20;;
19944;SDS011;10134;50.952;6.930;2023-06-14T09:59:16;1.98;;;1.33;;
19944;SDS011;10134;50.952;6.930;2023-06-14T10:01:57;7.28;;;1.70;;
19944;SDS011;10134;50.952;6.930;2023-06-14T10:04:27;3.72;;;1.40;;
19944;SDS011;10134;50.952;6.930;2023-06-14T10:06:57;4.60;;;1.83;;
19944;SDS011;10134;50.952;6.930;2023-06-14T10:09:25;1.90;;;1.40;;
19944;SDS011;10134;50.952;6.930;2023-06-14T10:11:55;1.83;;;1.52;;
19944;SDS011;10134;50.952;6.930;2023-06-14T10:14:23;2.50;;;1.45;;
19944;SDS011;10134;50.952;6.930;2023-06-14T10:16:59;3.10;;;1.60;;
19944;SDS011;10134;50.952;6.930;2023-06-14T10:22:06;3.35;;;1.63;;
19944;SDS011;10134;50.952;6.930;2023-06-14T10:24:46;2.63;;;1.50;;
19944;SDS011;10134;50.952;6.930;2023-06-14T10:27:15;3.53;;;1.73;;
19944;SDS011;10134;50.952;6.930;2023-06-14T10:32:21;5.13;;;1.92;;
19944;SDS011;10134;50.952;6.930;2023-06-14T10:34:57;5.05;;;2.10;;
19944;SDS011;10134;50.952;6.930;2023-06-14T10:37:37;2.25;;;1.70;;
19944;SDS011;10134;50.952;6.930;2023-06-14T10:40:04;2.90;;;1.63;;
19944;SDS011;10134;50.952;6.930;2023-06-14T10:42:35;2.05;;;1.80;;
19944;SDS011;10134;50.952;6.930;2023-06-14T10:45:02;6.60;;;2.53;;
19944;SDS011;10134;50.952;6.930;2023-06-14T10:47:31;2.53;;;1.52;;
19944;SDS011;10134;50.952;6.930;2023-06-14T10:52:29;2.03;;;1.42;;
19944;SDS011;10134;50.952;6.930;2023-06-14T10:55:00;2.33;;;1.48;;
19944;SDS011;10134;50.952;6.930;2023-06-14T10:57:30;2.65;;;1.52;;
19944;SDS011;10134;50.952;6.930;2023-06-14T11:00:14;1.58;;;1.30;;
19944;SDS011;10134;50.952;6.930;2023-06-14T11:02:48;2.13;;;1.42;;
19944;SDS011;10134;50.952;6.930;2023-06-14T11:05:49;6.70;;;1.40;;
19944;SDS011;10134;50.952;6.930;2023-06-14T11:08:27;2.17;;;1.70;;
19944;SDS011;10134;50.952;6.930;2023-06-14T11:11:16;2.58;;;1.42;;
19944;SDS011;10134;50.952;6.930;2023-06-14T11:13:45;1.92;;;1.52;;
19944;SDS011;10134;50.952;6.930;2023-06-14T11:16:17;2.13;;;1.38;;
19944;SDS011;10134;50.952;6.930;2023-06-14T11:18:48;2.65;;;1.35;;
19944;SDS011;10134;50.952;6.930;2023-06-14T11:21:16;1.67;;;1.42;;
19944;SDS011;10134;50.952;6.930;2023-06-14T11:23:51;4.32;;;1.48;;
19944;SDS011;10134;50.952;6.930;2023-06-14T11:26:24;2.13;;;1.40;;
19944;SDS011;10134;50.952;6.930;2023-06-14T11:28:56;2.47;;;1.75;;
19944;SDS011;10134;50.952;6.930;2023-06-14T11:31:25;1.70;;;1.33;;
19944;SDS011;10134;50.952;6.930;2023-06-14T11:33:54;1.42;;;1.20;;
19944;SDS011;10134;50.952;6.930;2023-06-14T11:36:27;3.17;;;1.70;;
19944;SDS011;10134;50.952;6.930;2023-06-14T11:38:59;1.98;;;1.50;;
19944;SDS011;10134;50.952;6.930;2023-06-14T11:41:35;9.05;;;1.63;;
19944;SDS011;10134;50.952;6.930;2023-06-14T11:44:05;2.58;;;1.70;;
19944;SDS011;10134;50.952;6.930;2023-06-14T11:46:33;2.88;;;1.95;;
19944;SDS011;10134;50.952;6.930;2023-06-14T11:49:01;2.38;;;1.58;;
19944;SDS011;10134;50.952;6.930;2023-06-14T11:51:32;1.80;;;1.45;;
19944;SDS011;10134;50.952;6.930;2023-06-14T11:54:01;2.88;;;1.40;;
19944;SDS011;10134;50.952;6.930;2023-06-14T11:56:30;5.32;;;1.60;;
19944;SDS011;10134;50.952;6.930;2023-06-14T11:58:59;1.80;;;1.50;;
19944;SDS011;10134;50.952;6.930;2023-06-14T12:01:27;1.90;;;1.20;;
19944;SDS011;10134;50.952;6.930;2023-06-14T12:03:56;5.43;;;1.70;;
19944;SDS011;10134;50.952;6.930;2023-06-14T12:06:29;2.00;;;1.38;;
19944;SDS011;10134;50.952;6.930;2023-06-14T12:09:03;2.05;;;1.33;;
19944;SDS011;10134;50.952;6.930;2023-06-14T12:11:35;2.33;;;1.60;;
19944;SDS011;10134;50.952;6.930;2023-06-14T12:14:06;3.05;;;1.60;;
19944;SDS011;10134;50.952;6.930;2023-06-14T12:16:37;3.83;;;1.90;;
19944;SDS011;10134;50.952;6.930;2023-06-14T12:19:14;4.10;;;1.80;;
19944;SDS011;10134;50.952;6.930;2023-06-14T12:21:43;2.70;;;1.77;;
19944;SDS011;10134;50.952;6.930;2023-06-14T12:24:15;3.10;;;1.58;;
19944;SDS011;10134;50.952;6.930;2023-06-14T12:26:42;1.83;;;1.27;;
19944;SDS011;10134;50.952;6.930;2023-06-14T12:29:10;2.80;;;1.25;;
19944;SDS011;10134;50.952;6.930;2023-06-14T12:31:40;1.50;;;1.20;;
19944;SDS011;10134;50.952;6.930;2023-06-14T12:34:07;5.32;;;1.67;;
19944;SDS011;10134;50.952;6.930;2023-06-14T12:36:35;2.30;;;1.23;;
19944;SDS011;10134;50.952;6.930;2023-06-14T12:39:07;4.38;;;1.35;;
19944;SDS011;10134;50.952;6.930;2023-06-14T12:41:35;2.72;;;1.23;;
19944;SDS011;10134;50.952;6.930;2023-06-14T12:44:03;3.58;;;1.20;;
19944;SDS011;10134;50.952;6.930;2023-06-14T12:46:31;2.13;;;1.55;;
19944;SDS011;10134;50.952;6.930;2023-06-14T12:48:59;2.00;;;1.10;;
19944;SDS011;10134;50.952;6.930;2023-06-14T12:51:26;1.70;;;1.20;;
19944;SDS011;10134;50.952;6.930;2023-06-14T12:53:54;2.42;;;1.58;;
19944;SDS011;10134;50.952;6.930;2023-06-14T12:56:22;2.47;;;1.38;;
19944;SDS011;10134;50.952;6.930;2023-06-14T12:58:50;2.67;;;1.20;;
19944;SDS011;10134;50.952;6.930;2023-06-14T13:01:18;1.67;;;1.35;;
19944;SDS011;10134;50.952;6.930;2023-06-14T13:03:46;1.48;;;1.10;;
19944;SDS011;10134;50.952;6.930;2023-06-14T13:06:14;1.83;;;1.20;;
19944;SDS011;10134;50.952;6.930;2023-06-14T13:08:41;1.10;;;1.00;;
19944;SDS011;10134;50.952;6.930;2023-06-14T13:11:09;1.38;;;1.05;;
19944;SDS011;10134;50.952;6.930;2023-06-14T13:13:36;3.22;;;0.93;;
19944;SDS011;10134;50.952;6.930;2023-06-14T13:16:04;2.78;;;1.17;;
19944;SDS011;10134;50.952;6.930;2023-06-14T13:18:31;1.92;;;1.33;;
19944;SDS011;10134;50.952;6.930;2023-06-14T13:20:59;2.05;;;1.10;;
19944;SDS011;10134;50.952;6.930;2023-06-14T13:23:26;6.93;;;1.67;;
19944;SDS011;10134;50.952;6.930;2023-06-14T13:25:53;1.30;;;0.98;;
19944;SDS011;10134;50.952;6.930;2023-06-14T13:28:21;1.75;;;1.05;;
19944;SDS011;10134;50.952;6.930;2023-06-14T13:30:48;2.92;;;1.17;;
19944;SDS011;10134;50.952;6.930;2023-06-14T13:33:16;3.38;;;1.30;;
19944;SDS011;10134;50.952;6.930;2023-06-14T13:35:43;1.60;;;1.17;;
19944;SDS011;10134;50.952;6.930;2023-06-14T13:38:11;1.10;;;1.00;;
19944;SDS011;10134;50.952;6.930;2023-06-14T13:40:38;1.77;;;1.10;;
19944;SDS011;10134;50.952;6.930;2023-06-14T13:43:06;3.17;;;1.30;;
19944;SDS011;10134;50.952;6.930;2023-06-14T13:45:33;2.17;;;1.10;;
19944;SDS011;10134;50.952;6.930;2023-06-14T13:48:00;4.53;;;1.65;;
19944;SDS011;10134;50.952;6.930;2023-06-14T13:50:27;2.80;;;1.70;;
19944;SDS011;10134;50.952;6.930;2023-06-14T13:52:55;3.45;;;1.45;;
19944;SDS011;10134;50.952;6.930;2023-06-14T13:55:22;12.43;;;1.90;;
19944;SDS011;10134;50.952;6.930;2023-06-14T13:57:49;6.78;;;1.80;;
19944;SDS011;10134;50.952;6.930;2023-06-14T14:00:17;4.22;;;1.40;;
19944;SDS011;10134;50.952;6.930;2023-06-14T14:02:49;1.67;;;1.33;;
19944;SDS011;10134;50.952;6.930;2023-06-14T14:05:17;3.42;;;1.52;;
19944;SDS011;10134;50.952;6.930;2023-06-14T14:07:44;3.88;;;1.60;;
19944;SDS011;10134;50.952;6.930;2023-06-14T14:10:13;4.88;;;1.60;;
19944;SDS011;10134;50.952;6.930;2023-06-14T14:12:41;1.58;;;1.40;;
19944;SDS011;10134;50.952;6.930;2023-06-14T14:15:09;2.70;;;1.58;;
19944;SDS011;10134;50.952;6.930;2023-06-14T14:17:40;4.05;;;1.30;;
19944;SDS011;10134;50.952;6.930;2023-06-14T14:20:08;3.22;;;1.70;;
19944;SDS011;10134;50.952;6.930;2023-06-14T14:22:38;5.20;;;1.55;;
19944;SDS011;10134;50.952;6.930;2023-06-14T14:25:05;2.90;;;1.83;;
19944;SDS011;10134;50.952;6.930;2023-06-14T14:27:33;2.58;;;1.40;;
19944;SDS011;10134;50.952;6.930;2023-06-14T14:30:00;3.10;;;1.45;;
19944;SDS011;10134;50.952;6.930;2023-06-14T14:32:27;3.83;;;1.40;;
19944;SDS011;10134;50.952;6.930;2023-06-14T14:34:55;2.30;;;1.60;;
19944;SDS011;10134;50.952;6.930;2023-06-14T14:37:22;4.90;;;2.10;;
19944;SDS011;10134;50.952;6.930;2023-06-14T14:39:49;5.13;;;1.60;;
19944;SDS011;10134;50.952;6.930;2023-06-14T14:42:17;3.20;;;1.63;;
19944;SDS011;10134;50.952;6.930;2023-06-14T14:44:45;4.88;;;1.70;;
19944;SDS011;10134;50.952;6.930;2023-06-14T14:47:12;2.30;;;1.40;;
19944;SDS011;10134;50.952;6.930;2023-06-14T14:49:39;2.03;;;1.48;;
19944;SDS011;10134;50.952;6.930;2023-06-14T14:52:08;5.32;;;1.95;;
19944;SDS011;10134;50.952;6.930;2023-06-14T14:54:50;5.28;;;1.98;;
19944;SDS011;10134;50.952;6.930;2023-06-14T14:57:17;21.40;;;3.13;;
19944;SDS011;10134;50.952;6.930;2023-06-14T14:59:44;2.97;;;1.38;;
19944;SDS011;10134;50.952;6.930;2023-06-14T15:02:13;3.08;;;1.40;;
19944;SDS011;10134;50.952;6.930;2023-06-14T15:04:40;3.97;;;1.70;;
19944;SDS011;10134;50.952;6.930;2023-06-14T15:07:08;3.22;;;1.67;;
19944;SDS011;10134;50.952;6.930;2023-06-14T15:09:36;3.92;;;1.55;;